createdAt,value
2022-11-20T00:01:14.145Z,5.65
2022-11-20T00:03:40.772Z,6.35
2022-11-20T00:06:08.384Z,6.30
2022-11-20T00:08:34.738Z,6.68
2022-11-20T00:11:05.299Z,6.25
2022-11-20T00:13:32.044Z,6.95
2022-11-20T00:15:59.481Z,6.10
2022-11-20T00:18:26.128Z,6.10
2022-11-20T00:20:52.539Z,5.30
2022-11-20T00:23:19.081Z,4.47
2022-11-20T00:25:45.493Z,4.10
2022-11-20T00:28:11.849Z,4.45
2022-11-20T00:30:38.520Z,3.97
2022-11-20T00:33:04.829Z,3.40
2022-11-20T00:35:31.126Z,2.40
2022-11-20T00:37:57.459Z,2.10
2022-11-20T00:40:23.887Z,1.67
2022-11-20T00:42:50.220Z,1.65
2022-11-20T00:45:16.674Z,1.58
2022-11-20T00:47:43.087Z,1.50
2022-11-20T00:50:09.776Z,1.40
2022-11-20T00:52:36.157Z,1.70
2022-11-20T00:55:02.692Z,1.80
2022-11-20T00:57:29.072Z,1.60
2022-11-20T00:59:55.424Z,1.50
2022-11-20T01:02:21.764Z,1.27
2022-11-20T01:04:48.096Z,1.77
2022-11-20T01:07:14.539Z,1.40
2022-11-20T01:09:40.857Z,1.40
2022-11-20T01:12:07.474Z,1.40
2022-11-20T01:14:33.917Z,1.50
2022-11-20T01:17:00.283Z,1.40
2022-11-20T01:19:26.709Z,1.35
2022-11-20T01:21:54.448Z,1.35
2022-11-20T01:24:21.729Z,1.65
2022-11-20T01:26:48.967Z,1.15
2022-11-20T01:29:16.394Z,1.30
2022-11-20T01:31:43.317Z,1.27
2022-11-20T01:34:18.206Z,1.08
2022-11-20T01:36:44.710Z,1.10
2022-11-20T01:39:14.209Z,1.00
2022-11-20T01:44:44.480Z,1.05
2022-11-20T01:47:15.354Z,1.80
2022-11-20T01:49:43.802Z,1.60
2022-11-20T01:52:18.196Z,1.30
2022-11-20T01:54:47.647Z,1.30
2022-11-20T01:57:14.414Z,1.33
2022-11-20T01:59:43.205Z,1.30
2022-11-20T02:02:09.831Z,1.10
2022-11-20T02:04:36.500Z,1.75
2022-11-20T02:07:05.939Z,2.00
2022-11-20T02:11:59.095Z,1.48
2022-11-20T02:14:26.141Z,1.70
2022-11-20T02:16:52.640Z,1.50
2022-11-20T02:19:24.997Z,1.88
2022-11-20T02:22:01.066Z,1.65
2022-11-20T02:24:27.461Z,1.40
2022-11-20T02:27:05.089Z,1.45
2022-11-20T02:29:40.673Z,1.25
2022-11-20T02:32:07.112Z,1.27
2022-11-20T02:34:33.641Z,1.25
2022-11-20T02:37:00.261Z,1.40
2022-11-20T02:39:27.949Z,1.40
2022-11-20T02:41:55.108Z,1.30
2022-11-20T02:44:21.609Z,1.30
2022-11-20T02:46:48.386Z,1.52
2022-11-20T02:49:14.856Z,1.58
2022-11-20T02:51:41.182Z,1.70
2022-11-20T02:54:07.568Z,2.08
2022-11-20T02:56:33.929Z,2.72
2022-11-20T02:59:00.335Z,2.60
2022-11-20T03:01:26.779Z,2.50
2022-11-20T03:03:55.507Z,2.03
2022-11-20T03:06:21.970Z,2.00
2022-11-20T03:08:48.768Z,1.73
2022-11-20T03:11:15.138Z,1.60
2022-11-20T03:13:41.442Z,1.55
2022-11-20T03:16:15.137Z,1.40
2022-11-20T03:18:42.416Z,1.58
2022-11-20T03:21:09.412Z,1.58
2022-11-20T03:23:36.332Z,1.80
2022-11-20T03:26:22.926Z,1.42
2022-11-20T03:28:50.929Z,1.58
2022-11-20T03:31:18.428Z,2.30
2022-11-20T03:33:45.148Z,1.90
2022-11-20T03:36:13.002Z,1.60
2022-11-20T03:38:39.619Z,1.38
2022-11-20T03:41:07.692Z,1.40
2022-11-20T03:43:34.522Z,1.33
2022-11-20T03:46:01.023Z,1.30
2022-11-20T03:48:27.471Z,1.35
2022-11-20T03:50:54.734Z,1.52
2022-11-20T03:53:21.303Z,1.50
2022-11-20T03:55:51.609Z,1.30
2022-11-20T03:58:19.132Z,1.38
2022-11-20T04:00:45.510Z,1.63
2022-11-20T04:03:11.849Z,2.08
2022-11-20T04:05:38.273Z,2.47
2022-11-20T04:08:04.779Z,3.33
2022-11-20T04:10:31.109Z,3.47
2022-11-20T04:12:57.488Z,3.97
2022-11-20T04:15:23.893Z,3.53
2022-11-20T04:17:50.630Z,2.83
2022-11-20T04:20:17.080Z,2.05
2022-11-20T04:22:43.490Z,1.90
2022-11-20T04:25:09.948Z,1.88
2022-11-20T04:27:36.283Z,1.88
2022-11-20T04:30:02.642Z,1.33
2022-11-20T04:32:28.968Z,1.52
2022-11-20T04:34:55.374Z,1.45
2022-11-20T04:37:21.702Z,1.33
2022-11-20T04:39:48.089Z,1.60
2022-11-20T04:42:29.756Z,1.45
2022-11-20T04:44:56.405Z,1.98
2022-11-20T04:47:22.796Z,1.35
2022-11-20T04:49:49.196Z,1.35
2022-11-20T04:52:15.632Z,1.75
2022-11-20T04:54:41.983Z,1.67
2022-11-20T04:57:14.086Z,1.35
2022-11-20T04:59:40.932Z,1.63
2022-11-20T05:02:07.352Z,1.45
2022-11-20T05:04:33.757Z,1.60
2022-11-20T05:07:00.199Z,1.35
2022-11-20T05:09:26.602Z,1.65
2022-11-20T05:11:53.163Z,1.85
2022-11-20T05:14:19.507Z,2.15
2022-11-20T05:16:46.035Z,2.25
2022-11-20T05:19:12.979Z,2.30
2022-11-20T05:21:39.334Z,1.98
2022-11-20T05:24:06.842Z,2.20
2022-11-20T05:26:34.557Z,1.90
2022-11-20T05:29:00.916Z,1.73
2022-11-20T05:31:28.431Z,1.80
2022-11-20T05:33:55.603Z,2.10
2022-11-20T05:36:21.906Z,1.85
2022-11-20T05:38:50.907Z,1.90
2022-11-20T05:41:19.121Z,1.75
2022-11-20T05:43:46.829Z,1.75
2022-11-20T05:46:14.366Z,1.88
2022-11-20T05:48:41.669Z,1.88
2022-11-20T05:51:09.683Z,1.48
2022-11-20T05:53:36.561Z,1.67
2022-11-20T05:56:04.816Z,1.75
2022-11-20T05:58:31.886Z,1.80
2022-11-20T06:01:05.716Z,1.48
2022-11-20T06:03:32.092Z,1.40
2022-11-20T06:05:59.797Z,1.60
2022-11-20T06:08:26.141Z,1.30
2022-11-20T06:10:52.791Z,1.20
2022-11-20T06:13:19.265Z,1.48
2022-11-20T06:15:52.610Z,1.70
2022-11-20T06:18:19.306Z,1.73
2022-11-20T06:20:45.868Z,1.33
2022-11-20T06:23:12.386Z,1.50
2022-11-20T06:25:42.064Z,1.50
2022-11-20T06:28:08.483Z,1.83
2022-11-20T06:30:34.853Z,1.55
2022-11-20T06:33:01.381Z,1.80
2022-11-20T06:35:27.782Z,1.48
2022-11-20T06:37:54.534Z,2.20
2022-11-20T06:40:20.952Z,1.55
2022-11-20T06:42:47.327Z,2.13
2022-11-20T06:45:13.776Z,1.45
2022-11-20T06:47:40.146Z,1.30
2022-11-20T06:50:06.723Z,1.48
2022-11-20T06:52:33.768Z,1.48
2022-11-20T06:55:00.255Z,1.10
2022-11-20T06:57:26.645Z,1.35
2022-11-20T06:59:52.963Z,1.38
2022-11-20T07:02:19.292Z,1.60
2022-11-20T07:04:45.691Z,1.45
2022-11-20T07:07:12.135Z,1.70
2022-11-20T07:09:38.724Z,1.88
2022-11-20T07:12:05.241Z,1.40
2022-11-20T07:14:31.826Z,2.00
2022-11-20T07:16:58.423Z,2.42
2022-11-20T07:19:24.785Z,2.42
2022-11-20T07:21:51.216Z,1.95
2022-11-20T07:24:17.765Z,2.15
2022-11-20T07:26:48.246Z,2.10
2022-11-20T07:29:14.660Z,2.42
2022-11-20T07:31:41.058Z,2.10
2022-11-20T07:34:07.678Z,2.00
2022-11-20T07:36:34.108Z,2.40
2022-11-20T07:39:00.488Z,1.80
2022-11-20T07:41:26.803Z,2.38
2022-11-20T07:43:53.528Z,1.80
2022-11-20T07:46:19.969Z,1.80
2022-11-20T07:48:46.257Z,1.98
2022-11-20T07:51:12.650Z,2.42
2022-11-20T07:53:39.089Z,2.10
2022-11-20T07:56:05.644Z,2.10
2022-11-20T07:58:34.177Z,2.08
2022-11-20T08:01:05.018Z,1.42
2022-11-20T08:03:31.524Z,1.70
2022-11-20T08:06:04.566Z,1.77
2022-11-20T08:08:33.651Z,2.20
2022-11-20T08:11:19.323Z,1.80
2022-11-20T08:14:04.405Z,2.20
2022-11-20T08:16:30.895Z,1.80
2022-11-20T08:18:57.481Z,1.98
2022-11-20T08:21:24.941Z,1.77
2022-11-20T08:23:51.471Z,1.80
2022-11-20T08:26:17.833Z,1.80
2022-11-20T08:28:44.999Z,2.17
2022-11-20T08:31:11.360Z,1.92
2022-11-20T08:33:37.900Z,2.05
2022-11-20T08:36:05.586Z,2.00
2022-11-20T08:38:32.379Z,2.00
2022-11-20T08:41:17.572Z,2.00
2022-11-20T08:43:43.955Z,2.65
2022-11-20T08:46:10.396Z,2.65
2022-11-20T08:48:36.926Z,2.42
2022-11-20T08:51:03.386Z,2.17
2022-11-20T08:53:29.807Z,2.45
2022-11-20T08:55:57.641Z,2.30
2022-11-20T08:58:23.997Z,2.45
2022-11-20T09:00:50.419Z,2.45
2022-11-20T09:03:16.797Z,2.33
2022-11-20T09:05:43.868Z,2.63
2022-11-20T09:08:10.284Z,2.08
2022-11-20T09:10:37.453Z,2.63
2022-11-20T09:13:03.860Z,2.45
2022-11-20T09:15:35.303Z,2.53
2022-11-20T09:18:03.507Z,2.60
2022-11-20T09:20:30.709Z,2.60
2022-11-20T09:22:57.631Z,2.58
2022-11-20T09:25:23.992Z,2.90
2022-11-20T09:27:56.057Z,2.35
2022-11-20T09:30:22.365Z,2.55
2022-11-20T09:32:48.775Z,2.50
2022-11-20T09:35:15.629Z,2.95
2022-11-20T09:37:41.997Z,2.90
2022-11-20T09:40:18.298Z,3.00
2022-11-20T09:42:47.794Z,3.15
2022-11-20T09:47:46.839Z,2.75
2022-11-20T09:50:31.323Z,3.03
2022-11-20T09:53:16.311Z,2.90
2022-11-20T09:55:43.327Z,3.55
2022-11-20T09:58:33.750Z,3.67
2022-11-20T10:01:04.539Z,4.38
2022-11-20T10:03:37.217Z,4.57
2022-11-20T10:06:04.612Z,5.13
2022-11-20T10:08:37.697Z,4.22
2022-11-20T10:11:10.282Z,3.42
2022-11-20T10:13:48.857Z,3.00
2022-11-20T10:16:27.391Z,2.53
2022-11-20T10:19:44.649Z,2.33
2022-11-20T10:22:17.137Z,2.00
2022-11-20T10:24:55.765Z,2.00
2022-11-20T10:27:29.628Z,2.00
2022-11-20T10:30:04.937Z,2.00
2022-11-20T10:32:37.917Z,1.83
2022-11-20T10:35:23.364Z,1.80
2022-11-20T10:37:55.119Z,1.83
2022-11-20T10:40:40.862Z,1.90
2022-11-20T10:43:16.064Z,1.90
2022-11-20T10:45:54.053Z,1.73
2022-11-20T10:48:25.000Z,2.47
2022-11-20T10:50:58.652Z,2.45
2022-11-20T10:53:32.711Z,2.50
2022-11-20T10:56:04.998Z,2.47
2022-11-20T10:58:44.846Z,2.30
2022-11-20T11:01:24.289Z,2.38
2022-11-20T11:06:34.607Z,2.40
2022-11-20T11:09:04.406Z,2.85
2022-11-20T11:11:33.110Z,2.60
2022-11-20T11:14:09.515Z,2.40
2022-11-20T11:16:36.704Z,2.38
2022-11-20T11:19:07.302Z,2.58
2022-11-20T11:21:33.653Z,2.55
2022-11-20T11:24:19.636Z,2.20
2022-11-20T11:27:13.678Z,2.75
2022-11-20T11:29:43.029Z,3.38
2022-11-20T11:32:12.485Z,3.47
2022-11-20T11:34:38.874Z,2.67
2022-11-20T11:37:05.937Z,2.30
2022-11-20T11:39:34.113Z,2.08
2022-11-20T11:42:01.740Z,2.05
2022-11-20T11:44:46.949Z,2.05
2022-11-20T11:47:22.254Z,1.80
2022-11-20T11:49:48.605Z,2.20
2022-11-20T11:52:15.680Z,1.88
2022-11-20T11:54:56.001Z,2.45
2022-11-20T11:57:41.298Z,2.05
2022-11-20T12:00:07.877Z,2.20
2022-11-20T12:02:46.677Z,1.80
2022-11-20T12:05:25.121Z,1.80
2022-11-20T12:08:00.407Z,1.80
2022-11-20T12:10:29.826Z,1.55
2022-11-20T12:13:01.768Z,1.77
2022-11-20T12:15:32.526Z,1.80
2022-11-20T12:17:58.942Z,1.70
2022-11-20T12:20:28.400Z,1.65
2022-11-20T12:25:20.997Z,1.85
2022-11-20T12:27:56.722Z,1.83
2022-11-20T12:30:23.361Z,1.92
2022-11-20T12:32:52.608Z,2.08
2022-11-20T12:35:37.535Z,1.85
2022-11-20T12:38:22.913Z,1.92
2022-11-20T12:41:08.212Z,1.98
2022-11-20T12:44:03.057Z,2.00
2022-11-20T12:46:44.305Z,1.75
2022-11-20T12:49:21.897Z,1.88
2022-11-20T12:52:18.905Z,1.88
2022-11-20T12:55:11.065Z,1.73
2022-11-20T12:57:58.488Z,1.98
2022-11-20T13:00:26.069Z,1.73
2022-11-20T13:03:14.934Z,1.95
2022-11-20T13:05:59.399Z,1.93
2022-11-20T13:08:29.551Z,1.50
2022-11-20T13:10:58.237Z,1.70
2022-11-20T13:13:30.708Z,2.00
2022-11-20T13:16:03.824Z,1.95
2022-11-20T13:18:32.141Z,1.88
2022-11-20T13:20:59.081Z,1.90
2022-11-20T13:23:29.481Z,1.80
2022-11-20T13:26:23.476Z,2.08
2022-11-20T13:29:18.220Z,1.90
2022-11-20T13:31:46.498Z,1.80
2022-11-20T13:34:15.644Z,2.05
2022-11-20T13:36:54.100Z,1.75
2022-11-20T13:39:37.329Z,1.90
2022-11-20T13:42:22.818Z,1.52
2022-11-20T13:44:54.428Z,1.63
2022-11-20T13:47:26.569Z,2.00
2022-11-20T13:49:55.424Z,1.73
2022-11-20T13:52:40.057Z,1.67
2022-11-20T13:55:20.426Z,1.75
2022-11-20T13:57:56.179Z,1.98
2022-11-20T14:00:25.001Z,2.08
2022-11-20T14:03:02.364Z,1.85
2022-11-20T14:05:29.427Z,1.88
2022-11-20T14:07:56.079Z,2.30
2022-11-20T14:10:32.132Z,1.92
2022-11-20T14:12:59.639Z,2.20
2022-11-20T14:15:31.942Z,1.90
2022-11-20T14:17:58.995Z,2.08
2022-11-20T14:20:27.939Z,2.03
2022-11-20T14:22:55.239Z,2.08
2022-11-20T14:25:24.368Z,2.05
2022-11-20T14:27:59.234Z,1.83
2022-11-20T14:30:28.296Z,2.38
2022-11-20T14:32:57.372Z,2.22
2022-11-20T14:35:30.037Z,2.15
2022-11-20T14:37:57.385Z,2.33
2022-11-20T14:40:31.768Z,1.80
2022-11-20T14:42:59.328Z,1.88
2022-11-20T14:45:26.886Z,2.03
2022-11-20T14:47:54.951Z,1.80
2022-11-20T14:50:27.676Z,2.10
2022-11-20T14:52:59.546Z,2.03
2022-11-20T14:55:31.428Z,1.98
2022-11-20T14:58:06.405Z,2.33
2022-11-20T15:00:34.408Z,2.17
2022-11-20T15:03:00.973Z,2.00
2022-11-20T15:05:48.976Z,2.30
2022-11-20T15:08:16.235Z,2.38
2022-11-20T15:10:53.120Z,2.50
2022-11-20T15:13:27.456Z,1.90
2022-11-20T15:15:56.145Z,2.65
2022-11-20T15:18:25.527Z,2.17
2022-11-20T15:20:52.863Z,2.15
2022-11-20T15:23:20.344Z,2.17
2022-11-20T15:25:47.980Z,1.95
2022-11-20T15:28:30.522Z,2.15
2022-11-20T15:30:57.441Z,2.40
2022-11-20T15:33:24.259Z,2.55
2022-11-20T15:35:50.804Z,2.30
2022-11-20T15:38:17.360Z,2.35
2022-11-20T15:40:44.067Z,2.40
2022-11-20T15:43:13.631Z,2.90
2022-11-20T15:45:48.880Z,2.53
2022-11-20T15:48:17.676Z,2.55
2022-11-20T15:50:51.773Z,2.05
2022-11-20T15:53:18.696Z,2.00
2022-11-20T15:55:45.311Z,2.10
2022-11-20T15:58:11.832Z,2.20
2022-11-20T16:00:38.507Z,2.30
2022-11-20T16:03:05.012Z,2.10
2022-11-20T16:05:31.981Z,2.85
2022-11-20T16:07:58.695Z,2.00
2022-11-20T16:10:25.696Z,2.22
2022-11-20T16:13:10.742Z,2.70
2022-11-20T16:15:45.856Z,2.95
2022-11-20T16:18:17.719Z,2.67
2022-11-20T16:20:44.606Z,3.03
2022-11-20T16:23:11.436Z,2.83
2022-11-20T16:25:38.239Z,2.47
2022-11-20T16:28:05.095Z,3.00
2022-11-20T16:30:33.862Z,3.10
2022-11-20T16:33:01.335Z,3.50
2022-11-20T16:35:28.977Z,3.38
2022-11-20T16:37:56.221Z,4.20
2022-11-20T16:40:26.287Z,4.05
2022-11-20T16:42:53.119Z,4.05
2022-11-20T16:45:25.343Z,4.28
2022-11-20T16:47:53.579Z,4.20
2022-11-20T16:50:20.178Z,4.50
2022-11-20T16:52:46.747Z,4.15
2022-11-20T16:55:13.675Z,4.95
2022-11-20T16:57:42.651Z,5.25
2022-11-20T17:00:09.795Z,4.93
2022-11-20T17:02:37.884Z,5.10
2022-11-20T17:05:04.726Z,5.05
2022-11-20T17:07:31.282Z,5.18
2022-11-20T17:09:58.127Z,4.43
2022-11-20T17:12:24.673Z,4.15
2022-11-20T17:14:51.171Z,4.38
2022-11-20T17:17:17.703Z,4.28
2022-11-20T17:19:46.798Z,4.18
2022-11-20T17:22:13.300Z,3.90
2022-11-20T17:24:39.824Z,3.88
2022-11-20T17:27:06.436Z,3.65
2022-11-20T17:29:33.905Z,4.57
2022-11-20T17:32:03.203Z,3.70
2022-11-20T17:34:29.828Z,3.42
2022-11-20T17:36:56.343Z,3.70
2022-11-20T17:39:22.887Z,3.80
2022-11-20T17:42:09.320Z,3.50
2022-11-20T17:44:35.896Z,3.22
2022-11-20T17:47:02.570Z,3.78
2022-11-20T17:49:29.194Z,3.47
2022-11-20T17:51:55.801Z,3.47
2022-11-20T17:54:22.691Z,3.30
2022-11-20T17:57:08.286Z,3.20
2022-11-20T17:59:34.847Z,3.47
2022-11-20T18:02:03.850Z,2.58
2022-11-20T18:04:30.732Z,2.88
2022-11-20T18:06:57.320Z,3.05
2022-11-20T18:09:23.967Z,2.40
2022-11-20T18:11:50.547Z,3.08
2022-11-20T18:14:28.929Z,2.60
2022-11-20T18:16:57.473Z,2.97
2022-11-20T18:19:32.450Z,2.78
2022-11-20T18:22:01.494Z,2.72
2022-11-20T18:24:28.313Z,2.07
2022-11-20T18:26:54.863Z,2.45
2022-11-20T18:29:21.941Z,2.72
2022-11-20T18:31:48.959Z,2.45
2022-11-20T18:34:16.406Z,2.47
2022-11-20T18:36:43.470Z,2.90
2022-11-20T18:39:11.915Z,3.00
2022-11-20T18:41:57.466Z,3.30
2022-11-20T18:44:45.450Z,3.30
2022-11-20T18:47:15.108Z,3.92
2022-11-20T18:49:42.826Z,4.45
2022-11-20T18:52:09.774Z,4.40
2022-11-20T18:54:36.907Z,4.38
2022-11-20T18:57:04.809Z,4.05
2022-11-20T18:59:31.907Z,4.13
2022-11-20T19:01:58.754Z,4.45
2022-11-20T19:04:25.632Z,4.10
2022-11-20T19:06:56.104Z,4.05
2022-11-20T19:09:24.064Z,4.05
2022-11-20T19:11:51.203Z,4.32
2022-11-20T19:14:17.983Z,4.07
2022-11-20T19:16:44.747Z,4.55
2022-11-20T19:19:11.255Z,4.63
2022-11-20T19:21:38.071Z,4.40
2022-11-20T19:24:05.608Z,4.30
2022-11-20T19:26:35.439Z,4.05
2022-11-20T19:29:02.139Z,3.72
2022-11-20T19:31:28.970Z,4.43
2022-11-20T19:34:00.924Z,4.13
2022-11-20T19:36:43.223Z,3.90
2022-11-20T19:39:11.757Z,3.47
2022-11-20T19:41:40.287Z,3.85
2022-11-20T19:44:09.575Z,3.45
2022-11-20T19:46:37.096Z,3.40
2022-11-20T19:49:04.848Z,3.10
2022-11-20T19:51:33.918Z,3.55
2022-11-20T19:54:01.012Z,3.70
2022-11-20T19:56:29.281Z,3.33
2022-11-20T19:58:56.364Z,3.97
2022-11-20T20:01:25.414Z,4.28
2022-11-20T20:03:52.953Z,3.63
2022-11-20T20:06:24.896Z,3.45
2022-11-20T20:08:56.066Z,3.67
2022-11-20T20:11:24.376Z,4.05
2022-11-20T20:13:51.064Z,3.70
2022-11-20T20:16:20.562Z,3.45
2022-11-20T20:21:18.501Z,2.63
2022-11-20T20:23:45.559Z,3.67
2022-11-20T20:26:12.592Z,3.88
2022-11-20T20:28:39.441Z,3.35
2022-11-20T20:31:13.088Z,3.50
2022-11-20T20:33:40.932Z,3.13
2022-11-20T20:36:09.335Z,3.15
2022-11-20T20:38:36.025Z,2.72
2022-11-20T20:41:02.537Z,3.28
2022-11-20T20:43:29.308Z,2.95
2022-11-20T20:45:55.874Z,3.35
2022-11-20T20:48:24.205Z,3.38
2022-11-20T20:51:01.051Z,3.30
2022-11-20T20:53:27.795Z,3.00
2022-11-20T20:55:58.558Z,3.05
2022-11-20T20:58:26.925Z,3.05
2022-11-20T21:00:55.721Z,3.13
2022-11-20T21:03:22.225Z,3.53
2022-11-20T21:05:56.064Z,3.55
2022-11-20T21:08:22.750Z,3.50
2022-11-20T21:10:49.565Z,3.10
2022-11-20T21:13:16.694Z,3.38
2022-11-20T21:15:46.556Z,2.97
2022-11-20T21:18:13.307Z,3.50
2022-11-20T21:21:02.372Z,3.40
2022-11-20T21:23:28.959Z,3.08
2022-11-20T21:25:55.553Z,3.35
2022-11-20T21:28:22.252Z,3.95
2022-11-20T21:30:49.437Z,3.88
2022-11-20T21:33:16.081Z,3.83
2022-11-20T21:35:42.605Z,4.00
2022-11-20T21:38:09.118Z,4.15
2022-11-20T21:40:35.796Z,4.05
2022-11-20T21:43:02.292Z,3.83
2022-11-20T21:45:28.904Z,4.22
2022-11-20T21:47:55.462Z,4.43
2022-11-20T21:50:22.397Z,4.95
2022-11-20T21:52:48.939Z,5.43
2022-11-20T21:55:15.767Z,5.18
2022-11-20T21:57:42.515Z,6.38
2022-11-20T22:00:10.640Z,6.85
2022-11-20T22:02:40.260Z,7.03
2022-11-20T22:05:08.111Z,7.50
2022-11-20T22:07:35.372Z,7.88
2022-11-20T22:10:02.111Z,6.78
2022-11-20T22:12:28.787Z,6.53
2022-11-20T22:14:55.322Z,7.05
2022-11-20T22:17:41.846Z,7.05
2022-11-20T22:20:09.369Z,6.50
2022-11-20T22:22:36.144Z,5.85
2022-11-20T22:25:03.307Z,4.97
2022-11-20T22:27:30.081Z,5.40
2022-11-20T22:29:56.579Z,5.03
2022-11-20T22:32:23.089Z,5.20
2022-11-20T22:34:49.549Z,5.18
2022-11-20T22:37:16.212Z,5.55
2022-11-20T22:39:42.708Z,5.30
2022-11-20T22:42:09.198Z,5.65
2022-11-20T22:44:35.715Z,6.18
2022-11-20T22:47:02.661Z,5.55
2022-11-20T22:49:31.108Z,5.93
2022-11-20T22:51:57.709Z,5.90
2022-11-20T22:54:25.048Z,6.28
2022-11-20T22:56:51.771Z,5.70
2022-11-20T22:59:18.565Z,5.00
2022-11-20T23:01:45.104Z,6.18
2022-11-20T23:04:14.794Z,5.68
2022-11-20T23:06:41.385Z,5.72
2022-11-20T23:09:08.746Z,4.90
2022-11-20T23:11:35.788Z,5.00
2022-11-20T23:14:05.137Z,4.78
2022-11-20T23:16:32.748Z,4.85
2022-11-20T23:19:01.833Z,4.65
2022-11-20T23:21:28.513Z,4.97
2022-11-20T23:23:56.841Z,4.70
2022-11-20T23:26:25.357Z,5.05
2022-11-20T23:28:53.806Z,4.32
2022-11-20T23:31:20.488Z,4.22
2022-11-20T23:33:47.022Z,4.20
2022-11-20T23:36:13.874Z,4.03
2022-11-20T23:38:40.831Z,3.70
2022-11-20T23:41:07.675Z,3.83
2022-11-20T23:43:34.533Z,4.00
2022-11-20T23:46:02.144Z,4.22
2022-11-20T23:48:33.763Z,3.90
2022-11-20T23:51:00.643Z,3.08
2022-11-20T23:53:27.649Z,3.83
2022-11-20T23:55:57.457Z,2.95
2022-11-20T23:58:25.376Z,3.25
